Thunder radar more information blitzortung!


Radar de pluja more information rain snow radar


Visita la nostra xarxa de llocs de meteo:

Template documentation
and downloads

And another site



No particular awareness of the weather is required.    There are no Weather-warnings

Pagina Historial Weather Underground text

Diari Resum Octubre 26, 2017 Unitats:  Mètric    Imperial   Tant
« Previous Dia
SegĂźent Dia »
Diari Setmana Mensual Anual Personalitzada
  Maxima: Minima: Media:
Temperatura: 23.3 °C 11.6 °C 18.3 °C
Punt de rosada: 17.1 °C 10.0 °C 14.8 °C
Humitat: 93 % 66 % 81 %
Wind Speed: 14.8 km/h 0.0 km/h 3.5 km/h
RĂ fegues de vent: 14.8 km/h - -
Vent:- - SSE
Pression baro: 1028.0 hPa 1024.9 hPa -
Precipitacions: 0.0 mm    
Historical Graphs
 
 
Dades de taula per Octubre 26, 2017
Temps Temperatura Punt de rosada Pression baro Vent Wind Speed RĂ fegues de vent Humitat Rainfall Rate (Hourly)
00:03 15.3 °C 12.4 °C 1026.0 hPa Calm     83 % 0.0 mm
00:08 15.2 °C 12.3 °C 1026.0 hPa Calm     83 % 0.0 mm
00:13 15.3 °C 12.6 °C 1026.0 hPa Calm     84 % 0.0 mm
00:18 15.2 °C 12.5 °C 1026.0 hPa Calm     84 % 0.0 mm
00:23 15.2 °C 12.5 °C 1026.0 hPa Calm     84 % 0.0 mm
00:28 15.2 °C 12.5 °C 1027.0 hPa Calm     84 % 0.0 mm
02:40 11.9 °C 10.3 °C 1026.0 hPa Calm     90 % 0.0 mm
02:50 11.9 °C 10.3 °C 1026.0 hPa NNW 1.6 km/h 1.6 km/h 90 % 0.0 mm
03:00 11.7 °C 10.1 °C 1026.0 hPa Calm   1.6 km/h 90 % 0.0 mm
03:10 11.7 °C 10.1 °C 1026.0 hPa Calm     90 % 0.0 mm
03:20 11.7 °C 10.1 °C 1027.0 hPa Calm     90 % 0.0 mm
03:30 11.8 °C 10.2 °C 1026.0 hPa Calm     90 % 0.0 mm
03:40 11.9 °C 10.5 °C 1026.0 hPa Calm     91 % 0.0 mm
03:50 12.0 °C 10.6 °C 1027.0 hPa Calm     91 % 0.0 mm
04:00 12.0 °C 10.6 °C 1027.0 hPa Calm     91 % 0.0 mm
04:10 11.7 °C 10.1 °C 1027.0 hPa Calm     90 % 0.0 mm
04:20 11.6 °C 10.0 °C 1027.0 hPa Calm   1.6 km/h 90 % 0.0 mm
04:30 11.7 °C 10.3 °C 1028.0 hPa Calm   1.6 km/h 91 % 0.0 mm
04:40 11.8 °C 10.4 °C 1028.0 hPa Calm     91 % 0.0 mm
04:50 12.1 °C 10.7 °C 1028.0 hPa Calm     91 % 0.0 mm
05:00 12.1 °C 10.7 °C 1028.0 hPa Calm   1.6 km/h 91 % 0.0 mm
05:10 12.4 °C 11.1 °C 1028.0 hPa Calm     92 % 0.0 mm
10:11 12.7 °C 11.4 °C 1028.0 hPa Calm     92 % 0.0 mm
10:16 12.8 °C 11.6 °C 1028.0 hPa WNW 1.9 km/h   92 % 0.0 mm
10:21 12.9 °C 11.6 °C 1028.0 hPa Calm     92 % 0.0 mm
10:26 13.0 °C 11.7 °C 1028.0 hPa Calm     92 % 0.0 mm
10:31 13.2 °C 12.1 °C 1028.0 hPa Calm     93 % 0.0 mm
10:36 13.3 °C 12.2 °C 1028.0 hPa Calm     93 % 0.0 mm
10:41 13.4 °C 12.3 °C 1028.0 hPa ENE 1.9 km/h 1.9 km/h 93 % 0.0 mm
10:46 13.4 °C 12.3 °C 1028.0 hPa SE 3.5 km/h   93 % 0.0 mm
10:51 13.5 °C 12.4 °C 1028.0 hPa ESE 1.9 km/h 1.9 km/h 93 % 0.0 mm
10:56 13.6 °C 12.5 °C 1028.0 hPa East 1.9 km/h   93 % 0.0 mm
11:01 13.7 °C 12.4 °C 1028.0 hPa East 3.9 km/h 3.9 km/h 92 % 0.0 mm
11:06 13.6 °C 12.3 °C 1028.0 hPa NE 3.7 km/h 3.7 km/h 92 % 0.0 mm
11:11 13.7 °C 12.4 °C 1028.0 hPa ENE 5.6 km/h 5.6 km/h 92 % 0.0 mm
11:16 13.8 °C 12.5 °C 1028.0 hPa NE 3.7 km/h 3.7 km/h 92 % 0.0 mm
11:21 14.0 °C 12.7 °C 1028.0 hPa NE 3.9 km/h 3.9 km/h 92 % 0.0 mm
11:26 14.3 °C 13.0 °C 1028.0 hPa NW 1.9 km/h 2.6 km/h 92 % 0.0 mm
11:31 14.4 °C 13.1 °C 1028.0 hPa WNW 2.6 km/h 2.6 km/h 92 % 0.0 mm
11:36 14.6 °C 13.3 °C 1028.0 hPa North 3.9 km/h 3.9 km/h 92 % 0.0 mm
11:46 15.1 °C 13.8 °C 1028.0 hPa WSW 5.3 km/h 5.3 km/h 92 % 0.0 mm
11:51 15.2 °C 13.9 °C 1028.0 hPa NNW 2.6 km/h 2.6 km/h 92 % 0.0 mm
11:56 15.5 °C 14.2 °C 1028.0 hPa WNW 2.6 km/h 2.6 km/h 92 % 0.0 mm
12:01 15.7 °C 14.4 °C 1028.0 hPa WSW 4.7 km/h 4.7 km/h 92 % 0.0 mm
12:06 15.8 °C 14.5 °C 1028.0 hPa WNW 1.9 km/h   92 % 0.0 mm
12:11 15.9 °C 14.4 °C 1028.0 hPa WSW 5.6 km/h 5.6 km/h 91 % 0.0 mm
12:16 16.2 °C 14.7 °C 1028.0 hPa SSE 3.7 km/h   91 % 0.0 mm
12:21 16.4 °C 14.9 °C 1028.0 hPa WSW 5.6 km/h 5.6 km/h 91 % 0.0 mm
12:26 16.6 °C 14.9 °C 1028.0 hPa West 3.7 km/h 3.7 km/h 90 % 0.0 mm
12:31 16.8 °C 15.2 °C 1028.0 hPa WSW 3.7 km/h 3.7 km/h 90 % 0.0 mm
12:36 17.5 °C 15.8 °C 1028.0 hPa SW 4.2 km/h 4.2 km/h 90 % 0.0 mm
12:41 17.9 °C 16.1 °C 1027.0 hPa SSW 3.7 km/h 3.7 km/h 89 % 0.0 mm
12:46 18.3 °C 16.3 °C 1027.0 hPa SW 3.9 km/h 3.9 km/h 88 % 0.0 mm
12:51 18.6 °C 16.4 °C 1027.0 hPa WSW 3.9 km/h 3.9 km/h 87 % 0.0 mm
12:56 18.6 °C 16.2 °C 1027.0 hPa WSW 1.9 km/h 2.3 km/h 86 % 0.0 mm
13:01 18.9 °C 16.3 °C 1027.0 hPa NNE 2.6 km/h 2.6 km/h 85 % 0.0 mm
13:06 19.0 °C 16.2 °C 1027.0 hPa West 3.7 km/h 3.7 km/h 84 % 0.0 mm
13:11 19.4 °C 16.4 °C 1027.0 hPa NE 3.7 km/h 3.7 km/h 83 % 0.0 mm
13:16 19.9 °C 16.7 °C 1027.0 hPa SSW 5.6 km/h 5.6 km/h 82 % 0.0 mm
13:21 20.1 °C 16.3 °C 1027.0 hPa SW 3.9 km/h 3.9 km/h 79 % 0.0 mm
13:26 20.2 °C 16.2 °C 1027.0 hPa East 5.6 km/h 5.6 km/h 78 % 0.0 mm
13:31 20.5 °C 16.6 °C 1027.0 hPa ESE 3.9 km/h 3.9 km/h 78 % 0.0 mm
13:36 20.7 °C 16.7 °C 1027.0 hPa SSE 7.4 km/h 7.4 km/h 78 % 0.0 mm
13:41 20.5 °C 16.1 °C 1027.0 hPa ESE 4.7 km/h 4.7 km/h 76 % 0.0 mm
13:46 20.7 °C 16.3 °C 1027.0 hPa East 4.2 km/h 4.2 km/h 76 % 0.0 mm
13:47 20.7 °C 16.3 °C 1027.0 hPa ESE 3.9 km/h 3.9 km/h 76 % 0.0 mm
13:52 20.7 °C 16.1 °C 1027.0 hPa ESE 5.6 km/h 5.6 km/h 75 % 0.0 mm
13:57 20.8 °C 16.0 °C 1027.0 hPa ESE 5.6 km/h 5.6 km/h 74 % 0.0 mm
14:02 21.0 °C 16.4 °C 1027.0 hPa NNE 4.2 km/h 4.2 km/h 75 % 0.0 mm
14:07 21.1 °C 16.5 °C 1027.0 hPa ENE 5.6 km/h 5.6 km/h 75 % 0.0 mm
14:12 21.3 °C 16.5 °C 1026.0 hPa ENE 3.7 km/h 3.7 km/h 74 % 0.0 mm
14:17 21.4 °C 16.3 °C 1026.0 hPa ESE 5.3 km/h 5.3 km/h 73 % 0.0 mm
14:22 21.4 °C 15.9 °C 1026.0 hPa ESE 5.6 km/h 5.6 km/h 71 % 0.0 mm
14:27 21.6 °C 16.1 °C 1026.0 hPa ENE 5.6 km/h 5.6 km/h 71 % 0.0 mm
14:32 21.8 °C 16.3 °C 1026.0 hPa South 5.6 km/h 5.6 km/h 71 % 0.0 mm
14:37 22.2 °C 16.7 °C 1026.0 hPa SW 5.6 km/h 5.6 km/h 71 % 0.0 mm
14:42 22.4 °C 16.9 °C 1026.0 hPa SSE 5.3 km/h 5.3 km/h 71 % 0.0 mm
14:47 22.6 °C 17.1 °C 1026.0 hPa SW 5.6 km/h 5.6 km/h 71 % 0.0 mm
14:52 22.5 °C 16.3 °C 1026.0 hPa WSW 7.4 km/h 7.4 km/h 68 % 0.0 mm
14:57 22.6 °C 16.6 °C 1024.9 hPa ESE 6.9 km/h 6.9 km/h 69 % 0.0 mm
15:02 22.2 °C 16.0 °C 1024.9 hPa ESE 5.6 km/h 5.6 km/h 68 % 0.0 mm
15:07 22.3 °C 16.3 °C 1024.9 hPa ESE 4.2 km/h 4.2 km/h 69 % 0.0 mm
15:12 22.3 °C 16.3 °C 1026.0 hPa ESE 7.4 km/h 7.4 km/h 69 % 0.0 mm
15:17 22.5 °C 16.5 °C 1026.0 hPa East 9.3 km/h 9.3 km/h 69 % 0.0 mm
15:22 22.5 °C 16.3 °C 1026.0 hPa ESE 7.4 km/h 7.4 km/h 68 % 0.0 mm
15:27 23.1 °C 16.9 °C 1026.0 hPa SSE 3.9 km/h 4.2 km/h 68 % 0.0 mm
15:37 22.8 °C 16.3 °C 1026.0 hPa East 11.1 km/h 11.1 km/h 67 % 0.0 mm
15:42 22.9 °C 16.7 °C 1024.9 hPa ESE 7.4 km/h 7.4 km/h 68 % 0.0 mm
15:47 23.0 °C 16.6 °C 1024.9 hPa ENE 5.8 km/h 5.8 km/h 67 % 0.0 mm
15:52 23.2 °C 16.5 °C 1024.9 hPa ESE 5.6 km/h 5.6 km/h 66 % 0.0 mm
15:57 23.2 °C 16.7 °C 1026.0 hPa NNE 7.4 km/h 7.4 km/h 67 % 0.0 mm
16:02 23.3 °C 16.6 °C 1026.0 hPa ESE 4.2 km/h 4.7 km/h 66 % 0.0 mm
16:07 23.2 °C 16.5 °C 1026.0 hPa ESE 5.8 km/h 7.2 km/h 66 % 0.0 mm
16:12 23.1 °C 16.4 °C 1026.0 hPa East 9.3 km/h 9.3 km/h 66 % 0.0 mm
16:17 23.0 °C 16.6 °C 1026.0 hPa ESE 9.3 km/h 9.3 km/h 67 % 0.0 mm
16:22 23.0 °C 16.6 °C 1026.0 hPa East 7.4 km/h 7.4 km/h 67 % 0.0 mm
16:27 23.0 °C 16.6 °C 1026.0 hPa ESE 9.3 km/h 9.3 km/h 67 % 0.0 mm
16:32 22.8 °C 16.3 °C 1026.0 hPa ESE 9.7 km/h 9.7 km/h 67 % 0.0 mm
16:37 22.7 °C 16.3 °C 1026.0 hPa ESE 9.3 km/h 9.3 km/h 67 % 0.0 mm
16:42 22.7 °C 16.3 °C 1026.0 hPa ESE 11.1 km/h 11.1 km/h 67 % 0.0 mm
16:47 22.6 °C 16.4 °C 1026.0 hPa ESE 9.3 km/h 9.3 km/h 68 % 0.0 mm
16:52 22.5 °C 16.3 °C 1026.0 hPa East 14.8 km/h 14.8 km/h 68 % 0.0 mm
16:57 22.5 °C 16.3 °C 1026.0 hPa East 11.9 km/h 11.9 km/h 68 % 0.0 mm
17:02 22.4 °C 16.2 °C 1026.0 hPa East 9.3 km/h 9.3 km/h 68 % 0.0 mm
17:07 22.4 °C 16.4 °C 1026.0 hPa ESE 9.3 km/h 9.3 km/h 69 % 0.0 mm
17:12 22.3 °C 16.3 °C 1026.0 hPa SE 9.5 km/h 9.5 km/h 69 % 0.0 mm
17:17 22.3 °C 16.3 °C 1026.0 hPa East 7.4 km/h 7.4 km/h 69 % 0.0 mm
17:22 22.2 °C 16.2 °C 1026.0 hPa ESE 7.4 km/h 7.4 km/h 69 % 0.0 mm
17:27 22.2 °C 16.4 °C 1026.0 hPa ESE 5.8 km/h 5.8 km/h 70 % 0.0 mm
17:32 22.2 °C 16.4 °C 1026.0 hPa East 9.3 km/h 9.3 km/h 70 % 0.0 mm
17:37 22.2 °C 16.4 °C 1026.0 hPa ENE 5.6 km/h 5.6 km/h 70 % 0.0 mm
17:42 22.2 °C 16.4 °C 1026.0 hPa ESE 7.4 km/h 7.4 km/h 70 % 0.0 mm
17:47 22.1 °C 16.6 °C 1026.0 hPa ESE 7.4 km/h 7.4 km/h 71 % 0.0 mm
17:52 22.0 °C 16.5 °C 1026.0 hPa ESE 5.6 km/h 5.6 km/h 71 % 0.0 mm
17:57 22.0 °C 16.5 °C 1026.0 hPa ESE 7.4 km/h 7.4 km/h 71 % 0.0 mm
18:02 21.9 °C 16.6 °C 1026.0 hPa ESE 3.7 km/h 4.2 km/h 72 % 0.0 mm
18:07 21.7 °C 16.7 °C 1026.0 hPa ESE 6.4 km/h 6.4 km/h 73 % 0.0 mm
18:12 21.6 °C 16.6 °C 1026.0 hPa ESE 5.6 km/h 5.6 km/h 73 % 0.0 mm
18:17 21.4 °C 16.3 °C 1026.0 hPa East 7.4 km/h 7.4 km/h 73 % 0.0 mm
18:22 21.3 °C 16.5 °C 1026.0 hPa ESE 4.7 km/h 4.7 km/h 74 % 0.0 mm
18:27 21.1 °C 16.3 °C 1026.0 hPa SE 5.6 km/h 5.6 km/h 74 % 0.0 mm
18:32 21.0 °C 16.2 °C 1026.0 hPa ESE 5.6 km/h 5.6 km/h 74 % 0.0 mm
18:37 20.8 °C 16.2 °C 1026.0 hPa ENE 5.6 km/h 5.6 km/h 75 % 0.0 mm
18:42 20.7 °C 16.1 °C 1026.0 hPa ESE 5.6 km/h 5.6 km/h 75 % 0.0 mm
18:47 20.6 °C 16.2 °C 1026.0 hPa ENE 3.7 km/h 3.7 km/h 76 % 0.0 mm
18:52 20.5 °C 16.1 °C 1026.0 hPa NE 1.9 km/h   76 % 0.0 mm
18:57 20.4 °C 16.0 °C 1026.0 hPa Calm     76 % 0.0 mm
19:02 20.3 °C 16.1 °C 1026.0 hPa Calm     77 % 0.0 mm
19:07 20.2 °C 16.1 °C 1026.0 hPa Calm     77 % 0.0 mm
19:12 20.1 °C 15.9 °C 1027.0 hPa Calm     77 % 0.0 mm
19:17 19.9 °C 15.7 °C 1027.0 hPa Calm     77 % 0.0 mm
19:22 19.8 °C 15.8 °C 1027.0 hPa Calm     78 % 0.0 mm
19:27 19.7 °C 15.8 °C 1027.0 hPa WNW 3.2 km/h   78 % 0.0 mm
19:32 19.6 °C 15.7 °C 1027.0 hPa West 1.9 km/h   78 % 0.0 mm
19:37 19.5 °C 15.6 °C 1027.0 hPa WSW 3.7 km/h   78 % 0.0 mm
19:42 19.5 °C 15.6 °C 1027.0 hPa West 5.6 km/h 5.6 km/h 78 % 0.0 mm
19:47 19.4 °C 15.4 °C 1027.0 hPa West 3.2 km/h 3.2 km/h 78 % 0.0 mm
19:52 19.4 °C 15.4 °C 1027.0 hPa SW 2.3 km/h 2.3 km/h 78 % 0.0 mm
19:57 19.3 °C 15.4 °C 1027.0 hPa WSW 2.3 km/h 2.3 km/h 78 % 0.0 mm
20:02 19.2 °C 15.4 °C 1027.0 hPa WSW 3.7 km/h   79 % 0.0 mm
20:07 19.1 °C 15.4 °C 1027.0 hPa WSW 2.6 km/h 2.6 km/h 79 % 0.0 mm
20:12 19.0 °C 15.3 °C 1027.0 hPa WSW 2.3 km/h 2.3 km/h 79 % 0.0 mm
20:17 19.0 °C 15.3 °C 1027.0 hPa WSW 1.9 km/h   79 % 0.0 mm
20:22 18.8 °C 15.3 °C 1027.0 hPa Calm     80 % 0.0 mm
20:27 18.7 °C 15.4 °C 1027.0 hPa Calm     81 % 0.0 mm
20:32 18.6 °C 15.3 °C 1027.0 hPa Calm     81 % 0.0 mm
20:37 18.5 °C 15.2 °C 1027.0 hPa Calm     81 % 0.0 mm
20:42 18.5 °C 15.2 °C 1027.0 hPa Calm     81 % 0.0 mm
20:47 18.4 °C 15.3 °C 1027.0 hPa Calm     82 % 0.0 mm
20:52 18.3 °C 15.2 °C 1027.0 hPa Calm     82 % 0.0 mm
20:57 18.2 °C 15.1 °C 1028.0 hPa Calm     82 % 0.0 mm
21:02 18.2 °C 15.1 °C 1028.0 hPa Calm     82 % 0.0 mm
21:07 18.1 °C 15.0 °C 1028.0 hPa Calm     82 % 0.0 mm
21:12 18.1 °C 15.2 °C 1028.0 hPa Calm     83 % 0.0 mm
21:17 18.0 °C 15.1 °C 1028.0 hPa Calm     83 % 0.0 mm
21:22 18.0 °C 15.1 °C 1028.0 hPa Calm     83 % 0.0 mm
21:27 17.8 °C 14.9 °C 1028.0 hPa WSW 1.9 km/h 1.9 km/h 83 % 0.0 mm
21:32 17.8 °C 14.9 °C 1028.0 hPa Calm     83 % 0.0 mm
21:37 17.6 °C 14.7 °C 1028.0 hPa Calm     83 % 0.0 mm
21:42 17.5 °C 14.8 °C 1028.0 hPa Calm     84 % 0.0 mm
21:47 17.3 °C 14.6 °C 1028.0 hPa Calm     84 % 0.0 mm
21:52 17.3 °C 14.6 °C 1028.0 hPa WSW 2.3 km/h 2.3 km/h 84 % 0.0 mm
21:57 17.1 °C 14.4 °C 1028.0 hPa SW 3.7 km/h 3.7 km/h 84 % 0.0 mm
22:02 17.0 °C 14.3 °C 1028.0 hPa Calm     84 % 0.0 mm
22:07 17.0 °C 14.4 °C 1028.0 hPa Calm     85 % 0.0 mm
22:12 17.1 °C 14.6 °C 1028.0 hPa West 3.7 km/h 3.7 km/h 85 % 0.0 mm
22:17 17.1 °C 14.6 °C 1028.0 hPa West 3.9 km/h   85 % 0.0 mm
22:22 17.2 °C 14.7 °C 1028.0 hPa WSW 3.7 km/h 3.7 km/h 85 % 0.0 mm
22:27 17.2 °C 14.7 °C 1028.0 hPa WSW 2.3 km/h   85 % 0.0 mm
22:32 17.2 °C 14.8 °C 1028.0 hPa WSW 1.9 km/h 1.9 km/h 86 % 0.0 mm
22:37 17.2 °C 14.8 °C 1028.0 hPa West 3.7 km/h 3.7 km/h 86 % 0.0 mm
22:42 17.3 °C 14.9 °C 1028.0 hPa Calm     86 % 0.0 mm
22:47 17.2 °C 14.8 °C 1028.0 hPa WSW 3.7 km/h 3.7 km/h 86 % 0.0 mm
22:52 17.3 °C 15.1 °C 1028.0 hPa West 3.7 km/h 3.7 km/h 87 % 0.0 mm
22:57 17.2 °C 15.0 °C 1028.0 hPa Calm     87 % 0.0 mm
23:02 17.2 °C 15.0 °C 1028.0 hPa West 3.2 km/h   87 % 0.0 mm
23:07 17.3 °C 15.1 °C 1028.0 hPa WSW 3.7 km/h 3.7 km/h 87 % 0.0 mm
23:12 17.2 °C 15.0 °C 1028.0 hPa WSW 3.7 km/h 3.7 km/h 87 % 0.0 mm
23:17 17.2 °C 15.0 °C 1028.0 hPa WSW 3.9 km/h 3.9 km/h 87 % 0.0 mm
23:22 17.1 °C 14.9 °C 1028.0 hPa SW 3.2 km/h 3.2 km/h 87 % 0.0 mm
23:27 17.0 °C 14.8 °C 1028.0 hPa WSW 2.6 km/h 2.6 km/h 87 % 0.0 mm
23:32 17.0 °C 14.8 °C 1028.0 hPa Calm     87 % 0.0 mm
23:37 16.8 °C 14.8 °C 1028.0 hPa Calm     88 % 0.0 mm
23:42 16.7 °C 14.7 °C 1028.0 hPa SW 3.7 km/h 3.7 km/h 88 % 0.0 mm
23:47 16.7 °C 14.7 °C 1028.0 hPa SW 3.7 km/h 3.7 km/h 88 % 0.0 mm
23:50 14.7 °C 13.6 °C 1026.0 hPa Calm     93 % 0.0 mm
23:52 16.5 °C 14.5 °C 1028.0 hPa SW 3.7 km/h 3.7 km/h 88 % 0.0 mm
23:57 16.4 °C 14.4 °C 1028.0 hPa SW 3.7 km/h 3.7 km/h 88 % 0.0 mm
Meteo Sesrovires
Elogis d' Weather Underground - 3.5 mb

Guio original per  Jim McMurry - jmcmurry@mwt.net Adaptat per a la plantilla per  Wim van der Kuil - Leuven-Template.eu

Trobareu la nostra informacio del temps tambe a:

Weather Underground

AWEKAS